sensor_id;sensor_type;location;lat;lon;timestamp;pressure;altitude;pressure_sealevel;temperature;humidity
33506;BME280;19843;51.040;13.782;2023-06-26T00:00:33;100402.03;;;20.91;78.01
33506;BME280;19843;51.040;13.782;2023-06-26T00:03:01;100391.50;;;20.91;78.17
33506;BME280;19843;51.040;13.782;2023-06-26T00:05:29;100391.13;;;20.79;78.79
33506;BME280;19843;51.040;13.782;2023-06-26T00:07:57;100387.06;;;20.87;78.21
33506;BME280;19843;51.040;13.782;2023-06-26T00:10:26;100384.59;;;20.96;77.80
33506;BME280;19843;51.040;13.782;2023-06-26T00:12:55;100385.81;;;20.88;77.81
33506;BME280;19843;51.040;13.782;2023-06-26T00:15:22;100384.63;;;20.85;78.03
33506;BME280;19843;51.040;13.782;2023-06-26T00:17:50;100384.28;;;20.69;78.83
33506;BME280;19843;51.040;13.782;2023-06-26T00:20:17;100381.88;;;20.60;79.21
33506;BME280;19843;51.040;13.782;2023-06-26T00:22:45;100387.53;;;20.64;79.31
33506;BME280;19843;51.040;13.782;2023-06-26T00:25:12;100376.56;;;20.69;78.84
33506;BME280;19843;51.040;13.782;2023-06-26T00:27:40;100383.09;;;20.59;79.30
33506;BME280;19843;51.040;13.782;2023-06-26T00:30:10;100379.50;;;20.48;79.38
33506;BME280;19843;51.040;13.782;2023-06-26T00:32:37;100378.25;;;20.53;79.22
33506;BME280;19843;51.040;13.782;2023-06-26T00:35:05;100378.66;;;20.44;79.09
33506;BME280;19843;51.040;13.782;2023-06-26T00:37:32;100373.84;;;19.98;81.64
33506;BME280;19843;51.040;13.782;2023-06-26T00:40:00;100373.44;;;20.28;80.13
33506;BME280;19843;51.040;13.782;2023-06-26T00:42:28;100377.88;;;20.29;80.21
33506;BME280;19843;51.040;13.782;2023-06-26T00:44:56;100374.25;;;20.14;80.98
33506;BME280;19843;51.040;13.782;2023-06-26T00:47:25;100374.25;;;20.18;80.44
33506;BME280;19843;51.040;13.782;2023-06-26T00:49:53;100366.97;;;20.13;80.76
33506;BME280;19843;51.040;13.782;2023-06-26T00:52:22;100366.53;;;20.26;80.38
33506;BME280;19843;51.040;13.782;2023-06-26T00:54:50;100365.75;;;20.14;80.55
33506;BME280;19843;51.040;13.782;2023-06-26T00:57:18;100360.50;;;19.84;81.70
33506;BME280;19843;51.040;13.782;2023-06-26T00:59:46;100360.91;;;20.01;81.18
33506;BME280;19843;51.040;13.782;2023-06-26T01:02:14;100367.78;;;20.10;80.73
33506;BME280;19843;51.040;13.782;2023-06-26T01:04:45;100369.41;;;19.86;82.66
33506;BME280;19843;51.040;13.782;2023-06-26T01:07:14;100369.81;;;19.95;81.63
33506;BME280;19843;51.040;13.782;2023-06-26T01:09:42;100375.09;;;20.04;81.15
33506;BME280;19843;51.040;13.782;2023-06-26T01:12:10;100368.63;;;19.61;83.28
33506;BME280;19843;51.040;13.782;2023-06-26T01:14:37;100367.81;;;19.82;82.62
33506;BME280;19843;51.040;13.782;2023-06-26T01:17:05;100360.13;;;19.86;81.83
33506;BME280;19843;51.040;13.782;2023-06-26T01:19:33;100358.03;;;19.47;84.22
33506;BME280;19843;51.040;13.782;2023-06-26T01:22:09;100364.56;;;19.76;82.95
33506;BME280;19843;51.040;13.782;2023-06-26T01:24:45;100361.31;;;19.74;82.40
33506;BME280;19843;51.040;13.782;2023-06-26T01:27:20;100361.66;;;19.33;84.75
33506;BME280;19843;51.040;13.782;2023-06-26T01:29:49;100354.00;;;19.59;83.55
33506;BME280;19843;51.040;13.782;2023-06-26T01:32:18;100351.59;;;19.57;83.55
33506;BME280;19843;51.040;13.782;2023-06-26T01:34:46;100354.78;;;19.56;83.35
33506;BME280;19843;51.040;13.782;2023-06-26T01:37:13;100354.38;;;19.32;84.69
33506;BME280;19843;51.040;13.782;2023-06-26T01:39:41;100350.38;;;19.48;83.47
33506;BME280;19843;51.040;13.782;2023-06-26T01:42:09;100348.75;;;19.43;83.26
33506;BME280;19843;51.040;13.782;2023-06-26T01:44:42;100339.03;;;19.44;83.77
33506;BME280;19843;51.040;13.782;2023-06-26T01:47:14;100343.13;;;19.61;82.59
33506;BME280;19843;51.040;13.782;2023-06-26T01:49:47;100339.41;;;19.35;84.41
33506;BME280;19843;51.040;13.782;2023-06-26T01:52:20;100336.59;;;19.50;83.80
33506;BME280;19843;51.040;13.782;2023-06-26T01:54:54;100326.88;;;19.51;83.48
33506;BME280;19843;51.040;13.782;2023-06-26T01:57:23;100337.44;;;19.47;83.66
33506;BME280;19843;51.040;13.782;2023-06-26T01:59:54;100325.69;;;19.44;84.30
33506;BME280;19843;51.040;13.782;2023-06-26T02:02:23;100325.66;;;19.23;85.25
33506;BME280;19843;51.040;13.782;2023-06-26T02:04:50;100322.41;;;19.10;85.95
33506;BME280;19843;51.040;13.782;2023-06-26T02:07:18;100326.06;;;19.36;84.77
33506;BME280;19843;51.040;13.782;2023-06-26T02:09:46;100320.81;;;19.24;85.17
33506;BME280;19843;51.040;13.782;2023-06-26T02:12:13;100325.63;;;19.12;85.37
33506;BME280;19843;51.040;13.782;2023-06-26T02:14:41;100330.38;;;18.73;88.55
33506;BME280;19843;51.040;13.782;2023-06-26T02:17:09;100319.81;;;18.66;89.27
33506;BME280;19843;51.040;13.782;2023-06-26T02:19:37;100315.91;;;18.99;86.98
33506;BME280;19843;51.040;13.782;2023-06-26T02:22:13;100315.50;;;18.97;86.80
33506;BME280;19843;51.040;13.782;2023-06-26T02:24:41;100329.69;;;19.15;86.00
33506;BME280;19843;51.040;13.782;2023-06-26T02:27:09;100321.59;;;19.13;85.36
33506;BME280;19843;51.040;13.782;2023-06-26T02:29:37;100322.75;;;18.98;86.73
33506;BME280;19843;51.040;13.782;2023-06-26T02:32:06;100315.91;;;18.99;86.03
33506;BME280;19843;51.040;13.782;2023-06-26T02:34:35;100316.72;;;19.03;85.92
33506;BME280;19843;51.040;13.782;2023-06-26T02:37:02;100318.34;;;19.04;85.93
33506;BME280;19843;51.040;13.782;2023-06-26T02:39:30;100319.13;;;19.01;86.02
33506;BME280;19843;51.040;13.782;2023-06-26T02:41:57;100313.50;;;19.15;84.82
33506;BME280;19843;51.040;13.782;2023-06-26T02:44:25;100314.31;;;19.12;84.83
33506;BME280;19843;51.040;13.782;2023-06-26T02:46:52;100312.63;;;18.83;86.28
33506;BME280;19843;51.040;13.782;2023-06-26T02:49:20;100312.25;;;18.91;86.39
33506;BME280;19843;51.040;13.782;2023-06-26T02:51:50;100313.81;;;18.71;87.92
33506;BME280;19843;51.040;13.782;2023-06-26T02:54:17;100315.03;;;18.77;87.28
33506;BME280;19843;51.040;13.782;2023-06-26T02:56:45;100312.22;;;18.88;86.44
33506;BME280;19843;51.040;13.782;2023-06-26T02:59:13;100309.41;;;18.99;85.70
33506;BME280;19843;51.040;13.782;2023-06-26T03:01:41;100312.50;;;18.65;87.79
33506;BME280;19843;51.040;13.782;2023-06-26T03:04:09;100311.84;;;18.86;86.91
33506;BME280;19843;51.040;13.782;2023-06-26T03:06:36;100308.63;;;18.91;86.12
33506;BME280;19843;51.040;13.782;2023-06-26T03:09:05;100313.03;;;18.88;86.19
33506;BME280;19843;51.040;13.782;2023-06-26T03:11:33;100307.81;;;19.01;85.79
33506;BME280;19843;51.040;13.782;2023-06-26T03:14:00;100306.22;;;19.07;84.84
33506;BME280;19843;51.040;13.782;2023-06-26T03:16:27;100303.81;;;19.09;84.30
33506;BME280;19843;51.040;13.782;2023-06-26T03:18:55;100301.78;;;19.06;84.15
33506;BME280;19843;51.040;13.782;2023-06-26T03:21:22;100308.66;;;19.16;84.03
33506;BME280;19843;51.040;13.782;2023-06-26T03:23:50;100309.88;;;19.11;83.99
33506;BME280;19843;51.040;13.782;2023-06-26T03:26:19;100315.56;;;19.18;83.88
33506;BME280;19843;51.040;13.782;2023-06-26T03:28:46;100307.41;;;18.92;85.13
33506;BME280;19843;51.040;13.782;2023-06-26T03:31:14;100309.47;;;19.06;84.79
33506;BME280;19843;51.040;13.782;2023-06-26T03:33:41;100309.06;;;19.22;84.23
33506;BME280;19843;51.040;13.782;2023-06-26T03:36:08;100311.91;;;19.14;84.11
33506;BME280;19843;51.040;13.782;2023-06-26T03:38:36;100303.44;;;19.18;83.52
33506;BME280;19843;51.040;13.782;2023-06-26T03:41:03;100308.66;;;19.12;84.10
33506;BME280;19843;51.040;13.782;2023-06-26T03:43:32;100305.84;;;19.30;83.21
33506;BME280;19843;51.040;13.782;2023-06-26T03:46:00;100300.22;;;19.37;82.53
33506;BME280;19843;51.040;13.782;2023-06-26T03:48:27;100304.25;;;19.33;82.90
33506;BME280;19843;51.040;13.782;2023-06-26T03:50:55;100310.31;;;19.35;82.41
33506;BME280;19843;51.040;13.782;2023-06-26T03:53:22;100298.59;;;19.47;81.66
33506;BME280;19843;51.040;13.782;2023-06-26T03:55:50;100294.56;;;19.37;82.56
33506;BME280;19843;51.040;13.782;2023-06-26T03:58:18;100296.56;;;19.30;82.47
33506;BME280;19843;51.040;13.782;2023-06-26T04:00:47;100294.53;;;19.44;81.90
33506;BME280;19843;51.040;13.782;2023-06-26T04:03:14;100292.56;;;19.63;80.85
33506;BME280;19843;51.040;13.782;2023-06-26T04:05:44;100285.66;;;19.78;80.40
33506;BME280;19843;51.040;13.782;2023-06-26T04:08:12;100283.22;;;19.44;81.91
33506;BME280;19843;51.040;13.782;2023-06-26T04:10:40;100286.06;;;19.84;80.22
33506;BME280;19843;51.040;13.782;2023-06-26T04:13:08;100283.25;;;19.80;80.39
33506;BME280;19843;51.040;13.782;2023-06-26T04:15:35;100277.38;;;21.25;73.20
33506;BME280;19843;51.040;13.782;2023-06-26T04:18:05;100277.47;;;22.11;68.47
33506;BME280;19843;51.040;13.782;2023-06-26T04:20:32;100267.13;;;22.28;67.79
33506;BME280;19843;51.040;13.782;2023-06-26T04:23:04;100261.59;;;23.09;64.36
33506;BME280;19843;51.040;13.782;2023-06-26T04:25:31;100267.72;;;22.46;65.78
33506;BME280;19843;51.040;13.782;2023-06-26T04:27:59;100273.69;;;22.21;67.53
33506;BME280;19843;51.040;13.782;2023-06-26T04:30:26;100272.50;;;23.41;62.58
33506;BME280;19843;51.040;13.782;2023-06-26T04:32:54;100265.13;;;24.74;58.35
33506;BME280;19843;51.040;13.782;2023-06-26T04:35:26;100272.22;;;25.22;56.34
33506;BME280;19843;51.040;13.782;2023-06-26T04:37:54;100256.97;;;25.45;54.43
33506;BME280;19843;51.040;13.782;2023-06-26T04:40:21;100263.72;;;24.62;57.31
33506;BME280;19843;51.040;13.782;2023-06-26T04:42:49;100258.66;;;24.30;58.48
33506;BME280;19843;51.040;13.782;2023-06-26T04:45:16;100258.66;;;25.42;55.38
33506;BME280;19843;51.040;13.782;2023-06-26T04:47:44;100255.63;;;24.97;55.85
33506;BME280;19843;51.040;13.782;2023-06-26T04:50:11;100271.72;;;24.71;57.61
33506;BME280;19843;51.040;13.782;2023-06-26T04:52:40;100262.81;;;26.03;53.24
33506;BME280;19843;51.040;13.782;2023-06-26T04:55:07;100261.69;;;24.99;55.98
33506;BME280;19843;51.040;13.782;2023-06-26T04:57:35;100263.22;;;24.47;57.43
33506;BME280;19843;51.040;13.782;2023-06-26T05:00:03;100262.88;;;23.05;61.44
33506;BME280;19843;51.040;13.782;2023-06-26T05:02:36;100251.66;;;23.44;61.61
33506;BME280;19843;51.040;13.782;2023-06-26T05:05:03;100261.28;;;24.21;59.58
33506;BME280;19843;51.040;13.782;2023-06-26T05:07:31;100254.19;;;24.09;59.66
33506;BME280;19843;51.040;13.782;2023-06-26T05:10:00;100249.28;;;25.06;56.71
33506;BME280;19843;51.040;13.782;2023-06-26T05:12:27;100242.66;;;25.77;54.68
33506;BME280;19843;51.040;13.782;2023-06-26T05:14:56;100242.38;;;24.70;57.38
33506;BME280;19843;51.040;13.782;2023-06-26T05:17:24;100238.38;;;24.84;57.80
33506;BME280;19843;51.040;13.782;2023-06-26T05:19:51;100230.00;;;25.78;54.46
33506;BME280;19843;51.040;13.782;2023-06-26T05:22:19;100238.84;;;24.99;56.24
33506;BME280;19843;51.040;13.782;2023-06-26T05:24:48;100237.50;;;24.51;58.24
33506;BME280;19843;51.040;13.782;2023-06-26T05:27:17;100237.53;;;24.08;59.36
33506;BME280;19843;51.040;13.782;2023-06-26T05:29:51;100235.91;;;24.07;59.53
33506;BME280;19843;51.040;13.782;2023-06-26T05:32:21;100235.78;;;25.10;56.91
33506;BME280;19843;51.040;13.782;2023-06-26T05:34:50;100226.50;;;25.54;55.11
33506;BME280;19843;51.040;13.782;2023-06-26T05:37:21;100225.19;;;25.07;56.74
33506;BME280;19843;51.040;13.782;2023-06-26T05:39:49;100220.78;;;25.54;55.25
33506;BME280;19843;51.040;13.782;2023-06-26T05:42:20;100223.66;;;25.22;56.27
33506;BME280;19843;51.040;13.782;2023-06-26T05:44:47;100219.16;;;24.68;58.42
33506;BME280;19843;51.040;13.782;2023-06-26T05:47:17;100222.09;;;24.65;57.94
33506;BME280;19843;51.040;13.782;2023-06-26T05:49:45;100210.34;;;25.15;56.63
33506;BME280;19843;51.040;13.782;2023-06-26T05:52:14;100212.66;;;25.20;56.76
33506;BME280;19843;51.040;13.782;2023-06-26T05:54:47;100205.78;;;25.34;56.47
33506;BME280;19843;51.040;13.782;2023-06-26T05:57:15;100207.94;;;25.30;57.49
33506;BME280;19843;51.040;13.782;2023-06-26T05:59:44;100215.28;;;24.95;58.44
33506;BME280;19843;51.040;13.782;2023-06-26T06:02:13;100207.03;;;25.33;57.38
33506;BME280;19843;51.040;13.782;2023-06-26T06:05:05;100207.22;;;24.73;59.09
33506;BME280;19843;51.040;13.782;2023-06-26T06:07:34;100198.34;;;25.69;57.03
33506;BME280;19843;51.040;13.782;2023-06-26T06:10:03;100205.78;;;25.34;56.78
33506;BME280;19843;51.040;13.782;2023-06-26T06:12:31;100199.63;;;24.67;59.36
33506;BME280;19843;51.040;13.782;2023-06-26T06:15:02;100198.66;;;25.26;57.85
33506;BME280;19843;51.040;13.782;2023-06-26T06:17:29;100200.47;;;25.82;56.77
33506;BME280;19843;51.040;13.782;2023-06-26T06:19:57;100193.06;;;25.84;56.04
33506;BME280;19843;51.040;13.782;2023-06-26T06:22:24;100199.50;;;25.72;56.66
33506;BME280;19843;51.040;13.782;2023-06-26T06:24:57;100197.75;;;26.20;55.41
33506;BME280;19843;51.040;13.782;2023-06-26T06:27:24;100197.00;;;25.74;56.08
33506;BME280;19843;51.040;13.782;2023-06-26T06:29:51;100190.56;;;25.86;55.30
33506;BME280;19843;51.040;13.782;2023-06-26T06:32:20;100178.75;;;26.13;55.31
33506;BME280;19843;51.040;13.782;2023-06-26T06:34:48;100185.41;;;26.65;54.31
33506;BME280;19843;51.040;13.782;2023-06-26T06:37:16;100177.84;;;26.96;52.93
33506;BME280;19843;51.040;13.782;2023-06-26T06:39:43;100186.00;;;26.60;53.60
33506;BME280;19843;51.040;13.782;2023-06-26T06:42:11;100181.91;;;27.12;52.97
33506;BME280;19843;51.040;13.782;2023-06-26T06:44:41;100183.22;;;26.81;52.83
33506;BME280;19843;51.040;13.782;2023-06-26T06:47:09;100173.88;;;26.39;54.75
33506;BME280;19843;51.040;13.782;2023-06-26T06:49:38;100170.88;;;27.23;53.10
33506;BME280;19843;51.040;13.782;2023-06-26T06:52:05;100177.84;;;27.69;52.57
33506;BME280;19843;51.040;13.782;2023-06-26T06:54:51;100171.97;;;27.86;52.20
33506;BME280;19843;51.040;13.782;2023-06-26T06:57:22;100172.81;;;26.62;54.87
33506;BME280;19843;51.040;13.782;2023-06-26T06:59:50;100164.84;;;27.55;52.40
33506;BME280;19843;51.040;13.782;2023-06-26T07:02:17;100171.28;;;27.81;51.70
33506;BME280;19843;51.040;13.782;2023-06-26T07:04:46;100163.97;;;27.68;51.35
33506;BME280;19843;51.040;13.782;2023-06-26T07:07:17;100173.94;;;27.76;51.35
33506;BME280;19843;51.040;13.782;2023-06-26T07:09:46;100164.78;;;28.03;49.92
33506;BME280;19843;51.040;13.782;2023-06-26T07:12:15;100157.03;;;27.56;51.81
33506;BME280;19843;51.040;13.782;2023-06-26T07:14:43;100157.56;;;28.20;50.24
33506;BME280;19843;51.040;13.782;2023-06-26T07:17:11;100151.44;;;28.62;48.94
33506;BME280;19843;51.040;13.782;2023-06-26T07:19:38;100155.66;;;28.48;49.63
33506;BME280;19843;51.040;13.782;2023-06-26T07:22:07;100154.25;;;29.33;47.58
33506;BME280;19843;51.040;13.782;2023-06-26T07:24:36;100162.25;;;28.89;47.73
33506;BME280;19843;51.040;13.782;2023-06-26T07:27:05;100158.13;;;28.06;49.80
33506;BME280;19843;51.040;13.782;2023-06-26T07:29:35;100154.69;;;28.73;49.15
33506;BME280;19843;51.040;13.782;2023-06-26T07:32:04;100153.19;;;28.60;49.10
33506;BME280;19843;51.040;13.782;2023-06-26T07:34:31;100149.44;;;28.81;48.60
33506;BME280;19843;51.040;13.782;2023-06-26T07:36:59;100144.81;;;29.24;48.72
33506;BME280;19843;51.040;13.782;2023-06-26T07:39:51;100142.75;;;29.33;47.04
33506;BME280;19843;51.040;13.782;2023-06-26T07:42:19;100144.59;;;29.58;48.42
33506;BME280;19843;51.040;13.782;2023-06-26T07:44:46;100144.75;;;29.82;46.02
33506;BME280;19843;51.040;13.782;2023-06-26T07:47:14;100140.91;;;29.85;47.66
33506;BME280;19843;51.040;13.782;2023-06-26T07:49:42;100139.94;;;30.25;45.70
33506;BME280;19843;51.040;13.782;2023-06-26T07:52:11;100145.38;;;29.77;45.75
33506;BME280;19843;51.040;13.782;2023-06-26T07:54:41;100139.31;;;29.66;46.59
33506;BME280;19843;51.040;13.782;2023-06-26T07:57:10;100138.66;;;29.90;45.74
33506;BME280;19843;51.040;13.782;2023-06-26T07:59:39;100132.56;;;30.24;45.93
33506;BME280;19843;51.040;13.782;2023-06-26T08:02:10;100130.00;;;30.08;45.90
33506;BME280;19843;51.040;13.782;2023-06-26T08:04:38;100121.19;;;30.39;46.30
33506;BME280;19843;51.040;13.782;2023-06-26T08:07:07;100126.50;;;29.67;46.86
33506;BME280;19843;51.040;13.782;2023-06-26T08:09:35;100130.31;;;29.46;46.50
33506;BME280;19843;51.040;13.782;2023-06-26T08:12:04;100125.25;;;30.56;44.78
33506;BME280;19843;51.040;13.782;2023-06-26T08:14:35;100123.63;;;30.74;45.23
33506;BME280;19843;51.040;13.782;2023-06-26T08:17:03;100115.47;;;30.72;44.50
33506;BME280;19843;51.040;13.782;2023-06-26T08:19:36;100115.94;;;30.10;44.29
33506;BME280;19843;51.040;13.782;2023-06-26T08:22:09;100110.97;;;30.71;43.50
33506;BME280;19843;51.040;13.782;2023-06-26T08:24:36;100104.97;;;30.93;43.21
33506;BME280;19843;51.040;13.782;2023-06-26T08:27:04;100102.38;;;31.19;41.68
33506;BME280;19843;51.040;13.782;2023-06-26T08:29:35;100106.47;;;30.79;42.49
33506;BME280;19843;51.040;13.782;2023-06-26T08:32:02;100108.44;;;31.69;41.46
33506;BME280;19843;51.040;13.782;2023-06-26T08:34:30;100102.03;;;31.50;38.49
33506;BME280;19843;51.040;13.782;2023-06-26T08:36:57;100105.16;;;32.00;39.13
33506;BME280;19843;51.040;13.782;2023-06-26T08:39:25;100095.00;;;30.19;42.85
33506;BME280;19843;51.040;13.782;2023-06-26T08:41:52;100101.00;;;31.15;40.13
33506;BME280;19843;51.040;13.782;2023-06-26T08:44:20;100094.69;;;31.64;39.84
33506;BME280;19843;51.040;13.782;2023-06-26T08:46:52;100092.78;;;32.00;39.80
33506;BME280;19843;51.040;13.782;2023-06-26T08:49:27;100088.78;;;30.02;41.21
33506;BME280;19843;51.040;13.782;2023-06-26T08:51:58;100084.28;;;30.61;40.26
33506;BME280;19843;51.040;13.782;2023-06-26T08:54:36;100085.16;;;29.55;42.01
33506;BME280;19843;51.040;13.782;2023-06-26T08:57:05;100081.84;;;30.78;40.73
33506;BME280;19843;51.040;13.782;2023-06-26T08:59:34;100090.34;;;30.21;40.19
33506;BME280;19843;51.040;13.782;2023-06-26T09:02:03;100085.19;;;31.34;39.72
33506;BME280;19843;51.040;13.782;2023-06-26T09:04:31;100084.47;;;31.78;38.11
33506;BME280;19843;51.040;13.782;2023-06-26T09:06:59;100074.88;;;32.10;38.28
33506;BME280;19843;51.040;13.782;2023-06-26T09:09:26;100070.06;;;31.78;38.92
33506;BME280;19843;51.040;13.782;2023-06-26T09:11:54;100075.28;;;31.50;37.95
33506;BME280;19843;51.040;13.782;2023-06-26T09:14:22;100074.66;;;31.84;37.23
33506;BME280;19843;51.040;13.782;2023-06-26T09:16:50;100066.84;;;30.23;39.45
33506;BME280;19843;51.040;13.782;2023-06-26T09:19:19;100059.41;;;31.06;40.42
33506;BME280;19843;51.040;13.782;2023-06-26T09:21:50;100063.72;;;32.18;38.87
33506;BME280;19843;51.040;13.782;2023-06-26T09:24:18;100066.66;;;31.65;40.46
33506;BME280;19843;51.040;13.782;2023-06-26T09:26:48;100061.19;;;31.04;40.74
33506;BME280;19843;51.040;13.782;2023-06-26T09:29:17;100057.66;;;32.16;38.53
33506;BME280;19843;51.040;13.782;2023-06-26T09:31:51;100068.19;;;32.04;38.19
33506;BME280;19843;51.040;13.782;2023-06-26T09:34:20;100057.34;;;31.99;36.72
33506;BME280;19843;51.040;13.782;2023-06-26T09:36:47;100056.28;;;31.97;37.38
33506;BME280;19843;51.040;13.782;2023-06-26T09:39:15;100055.22;;;32.59;36.86
33506;BME280;19843;51.040;13.782;2023-06-26T09:41:43;100062.22;;;32.37;38.30
33506;BME280;19843;51.040;13.782;2023-06-26T09:44:16;100067.19;;;32.52;37.58
33506;BME280;19843;51.040;13.782;2023-06-26T09:46:45;100054.56;;;31.90;39.74
33506;BME280;19843;51.040;13.782;2023-06-26T09:49:13;100044.97;;;33.13;37.14
33506;BME280;19843;51.040;13.782;2023-06-26T09:51:45;100043.22;;;33.62;35.56
33506;BME280;19843;51.040;13.782;2023-06-26T09:54:16;100035.19;;;33.52;36.61
33506;BME280;19843;51.040;13.782;2023-06-26T09:56:46;100045.31;;;32.16;36.50
33506;BME280;19843;51.040;13.782;2023-06-26T09:59:15;100037.56;;;30.91;37.69
33506;BME280;19843;51.040;13.782;2023-06-26T10:01:45;100037.19;;;32.64;35.73
33506;BME280;19843;51.040;13.782;2023-06-26T10:04:14;100034.19;;;32.94;41.08
33506;BME280;19843;51.040;13.782;2023-06-26T10:06:47;100027.88;;;33.56;35.85
33506;BME280;19843;51.040;13.782;2023-06-26T10:09:17;100025.97;;;32.22;35.73
33506;BME280;19843;51.040;13.782;2023-06-26T10:11:49;100023.66;;;34.04;34.12
33506;BME280;19843;51.040;13.782;2023-06-26T10:14:20;100019.13;;;32.89;36.06
33506;BME280;19843;51.040;13.782;2023-06-26T10:16:49;100026.25;;;32.53;39.29
33506;BME280;19843;51.040;13.782;2023-06-26T10:19:19;100030.56;;;32.78;37.65
33506;BME280;19843;51.040;13.782;2023-06-26T10:21:53;100022.06;;;32.54;34.80
33506;BME280;19843;51.040;13.782;2023-06-26T10:24:22;100020.72;;;33.72;34.70
33506;BME280;19843;51.040;13.782;2023-06-26T10:26:58;100010.81;;;34.10;34.99
33506;BME280;19843;51.040;13.782;2023-06-26T10:29:33;100021.81;;;31.93;33.47
33506;BME280;19843;51.040;13.782;2023-06-26T10:32:03;100017.84;;;33.52;33.25
33506;BME280;19843;51.040;13.782;2023-06-26T10:34:58;100006.94;;;33.61;34.67
33506;BME280;19843;51.040;13.782;2023-06-26T10:37:42;100000.53;;;33.11;34.96
33506;BME280;19843;51.040;13.782;2023-06-26T10:40:10;99999.31;;;32.97;35.03
33506;BME280;19843;51.040;13.782;2023-06-26T10:42:39;99995.19;;;33.24;34.81
33506;BME280;19843;51.040;13.782;2023-06-26T10:45:13;100002.44;;;33.86;32.83
33506;BME280;19843;51.040;13.782;2023-06-26T10:47:42;100000.69;;;33.02;35.15
33506;BME280;19843;51.040;13.782;2023-06-26T10:50:23;99996.38;;;31.38;34.94
33506;BME280;19843;51.040;13.782;2023-06-26T10:53:24;99995.41;;;33.21;35.02
33506;BME280;19843;51.040;13.782;2023-06-26T10:55:56;99994.53;;;31.50;35.35
33506;BME280;19843;51.040;13.782;2023-06-26T10:58:31;99991.13;;;31.81;35.77
33506;BME280;19843;51.040;13.782;2023-06-26T11:01:18;99991.03;;;31.07;36.84
33506;BME280;19843;51.040;13.782;2023-06-26T11:03:49;99996.44;;;32.62;35.98
33506;BME280;19843;51.040;13.782;2023-06-26T11:06:19;99985.41;;;32.81;34.45
33506;BME280;19843;51.040;13.782;2023-06-26T11:08:49;99985.28;;;33.10;34.16
33506;BME280;19843;51.040;13.782;2023-06-26T11:11:17;99980.19;;;31.41;35.67
33506;BME280;19843;51.040;13.782;2023-06-26T11:13:46;99985.38;;;31.51;35.70
33506;BME280;19843;51.040;13.782;2023-06-26T11:16:14;99978.59;;;32.13;35.84
33506;BME280;19843;51.040;13.782;2023-06-26T11:18:44;99979.19;;;32.68;35.30
33506;BME280;19843;51.040;13.782;2023-06-26T11:21:12;99981.44;;;32.99;32.50
33506;BME280;19843;51.040;13.782;2023-06-26T11:24:07;99972.13;;;33.09;31.60
33506;BME280;19843;51.040;13.782;2023-06-26T11:26:38;99974.47;;;33.31;32.93
33506;BME280;19843;51.040;13.782;2023-06-26T11:29:05;99974.63;;;33.22;33.69
33506;BME280;19843;51.040;13.782;2023-06-26T11:31:34;99964.41;;;33.01;34.56
33506;BME280;19843;51.040;13.782;2023-06-26T11:34:04;99972.69;;;32.73;33.89
33506;BME280;19843;51.040;13.782;2023-06-26T11:36:31;99965.72;;;33.72;34.32
33506;BME280;19843;51.040;13.782;2023-06-26T11:39:04;99967.03;;;33.71;34.12
33506;BME280;19843;51.040;13.782;2023-06-26T11:41:59;99950.19;;;33.23;33.80
33506;BME280;19843;51.040;13.782;2023-06-26T11:44:29;99949.78;;;32.89;34.16
33506;BME280;19843;51.040;13.782;2023-06-26T11:46:57;99953.78;;;33.38;35.67
33506;BME280;19843;51.040;13.782;2023-06-26T11:49:25;99952.28;;;33.43;35.52
33506;BME280;19843;51.040;13.782;2023-06-26T11:51:54;99946.88;;;32.89;33.99
33506;BME280;19843;51.040;13.782;2023-06-26T11:54:26;99951.38;;;33.11;33.18
33506;BME280;19843;51.040;13.782;2023-06-26T11:57:19;99948.19;;;33.09;33.33
33506;BME280;19843;51.040;13.782;2023-06-26T11:59:50;99950.75;;;32.81;33.90
33506;BME280;19843;51.040;13.782;2023-06-26T12:02:21;99946.56;;;32.11;33.93
33506;BME280;19843;51.040;13.782;2023-06-26T12:05:13;99935.56;;;33.06;34.03
33506;BME280;19843;51.040;13.782;2023-06-26T12:07:44;99936.06;;;34.09;32.18
33506;BME280;19843;51.040;13.782;2023-06-26T12:10:13;99946.69;;;33.39;31.47
33506;BME280;19843;51.040;13.782;2023-06-26T12:12:48;99929.25;;;32.87;31.37
33506;BME280;19843;51.040;13.782;2023-06-26T12:15:16;99924.59;;;33.62;32.57
33506;BME280;19843;51.040;13.782;2023-06-26T12:17:44;99932.22;;;34.23;33.11
33506;BME280;19843;51.040;13.782;2023-06-26T12:20:18;99931.31;;;33.48;32.84
33506;BME280;19843;51.040;13.782;2023-06-26T12:22:46;99923.91;;;32.80;33.96
33506;BME280;19843;51.040;13.782;2023-06-26T12:25:15;99921.34;;;33.55;33.64
33506;BME280;19843;51.040;13.782;2023-06-26T12:27:44;99920.56;;;33.28;34.91
33506;BME280;19843;51.040;13.782;2023-06-26T12:30:14;99912.59;;;33.75;33.04
33506;BME280;19843;51.040;13.782;2023-06-26T12:32:44;99920.97;;;32.54;33.81
33506;BME280;19843;51.040;13.782;2023-06-26T12:35:12;99916.75;;;33.17;34.33
33506;BME280;19843;51.040;13.782;2023-06-26T12:37:39;99905.38;;;32.67;34.97
33506;BME280;19843;51.040;13.782;2023-06-26T12:40:16;99906.94;;;33.92;32.95
33506;BME280;19843;51.040;13.782;2023-06-26T12:42:46;99911.44;;;32.48;33.75
33506;BME280;19843;51.040;13.782;2023-06-26T12:45:17;99905.22;;;33.43;34.08
33506;BME280;19843;51.040;13.782;2023-06-26T12:47:48;99894.72;;;33.77;31.98
33506;BME280;19843;51.040;13.782;2023-06-26T12:50:16;99895.94;;;34.39;32.94
33506;BME280;19843;51.040;13.782;2023-06-26T12:52:43;99883.44;;;34.16;31.46